Time;durP1;ratioP1;P1;durP2;ratioP2;P2;SDS_P1;SDS_P2;PMS_P1;PMS_P2;Temp;Humidity;BMP_temperature;BMP_pressure;BME280_temperature;BME280_humidity;BME280_pressure;Samples;Min_cycle;Max_cycle;Signal;HPM_P1;HPM_P2
2022/03/10 00:00:30;;;;;;;15.47;11.00;;;2.70;99.90;;;3.41;79.05;-19842.91;5092463;28;20678;-58
2022/03/10 00:02:58;;;;;;;15.07;11.50;;;2.70;99.90;;;3.30;79.33;-19839.31;5092567;28;20298;-58
2022/03/10 00:05:26;;;;;;;14.60;11.33;;;2.70;99.90;;;3.30;79.49;-19839.16;5092589;28;20196;-58
2022/03/10 00:07:54;;;;;;;15.57;11.50;;;2.60;99.90;;;3.30;79.63;-19839.31;5093186;28;20235;-58
2022/03/10 00:10:23;;;;;;;15.23;11.40;;;2.60;99.90;;;3.30;79.53;-19839.31;5092580;28;20226;-58
2022/03/10 00:12:53;;;;;;;15.53;11.77;;;2.60;99.90;;;3.20;80.20;-19835.91;5092143;28;20725;-57
2022/03/10 00:15:24;;;;;;;16.43;12.93;;;2.50;99.90;;;3.19;80.19;-19835.56;5092399;28;20750;-57
2022/03/10 00:17:54;;;;;;;16.70;12.17;;;2.50;99.90;;;3.08;80.99;-19831.63;5092175;28;20262;-58
2022/03/10 00:20:23;;;;;;;14.77;11.53;;;2.50;99.90;;;3.03;82.18;-19829.91;5092534;28;20305;-57
2022/03/10 00:22:55;;;;;;;18.00;11.87;;;2.40;99.90;;;3.21;80.68;-19836.06;5092793;28;20294;-58
2022/03/10 00:25:23;;;;;;;15.30;11.87;;;2.40;99.90;;;3.16;81.01;-19834.34;5092362;28;20223;-56
2022/03/10 00:27:51;;;;;;;17.43;11.90;;;2.40;99.90;;;3.15;81.08;-19834.19;5092165;28;20323;-57
2022/03/10 00:30:19;;;;;;;15.47;12.03;;;2.40;99.90;;;3.01;81.76;-19829.41;5092026;28;20303;-56
2022/03/10 00:32:50;;;;;;;17.73;11.90;;;2.40;99.90;;;3.01;82.59;-19829.22;5091892;28;20305;-57
2022/03/10 00:35:22;;;;;;;17.50;12.40;;;2.30;99.90;;;3.02;82.77;-19829.56;5093066;28;20205;-58
2022/03/10 00:37:57;;;;;;;19.67;14.60;;;2.30;99.90;;;3.18;82.50;-19835.03;5091166;28;20229;-58
2022/03/10 00:40:26;;;;;;;23.33;14.70;;;2.30;99.90;;;3.00;83.12;-19829.06;5091889;28;20711;-57
2022/03/10 00:42:54;;;;;;;16.43;13.43;;;2.30;99.90;;;2.86;83.48;-19824.09;5091422;28;20718;-57
2022/03/10 00:45:25;;;;;;;16.83;12.37;;;2.20;99.90;;;2.70;83.93;-19818.63;5092056;28;20229;-59
2022/03/10 00:47:54;;;;;;;15.07;11.93;;;2.10;99.90;;;2.79;83.42;-19821.72;5091574;28;20356;-58
2022/03/10 00:50:24;;;;;;;17.20;13.50;;;2.00;99.90;;;2.70;84.28;-19818.63;5091669;28;20242;-59
2022/03/10 00:52:52;;;;;;;15.67;12.17;;;2.00;99.90;;;2.71;84.30;-19818.97;5092031;28;20692;-56
2022/03/10 00:55:21;;;;;;;17.47;12.60;;;2.00;99.90;;;2.39;85.74;-19808.38;5092042;28;20307;-57
2022/03/10 00:57:51;;;;;;;15.37;12.50;;;1.80;99.90;;;2.23;87.36;-19802.91;5091488;28;20231;-59
2022/03/10 01:00:21;;;;;;;14.50;12.20;;;1.70;99.90;;;2.16;88.96;-19800.34;5091506;28;20215;-58
2022/03/10 01:02:49;;;;;;;15.13;12.50;;;1.60;99.90;;;2.13;89.58;-19799.47;5091815;28;20228;-56
2022/03/10 01:05:19;;;;;;;19.90;13.10;;;1.60;99.90;;;2.07;90.52;-19797.25;5092065;28;20204;-57
2022/03/10 01:07:49;;;;;;;18.00;12.47;;;1.50;99.90;;;2.10;91.34;-19798.47;5091596;28;20215;-58
2022/03/10 01:10:19;;;;;;;16.40;12.57;;;1.50;99.90;;;2.10;91.20;-19798.47;5091558;28;20232;-58
2022/03/10 01:12:47;;;;;;;15.53;11.47;;;1.50;99.90;;;2.06;91.39;-19796.91;5090879;28;20223;-57
2022/03/10 01:15:18;;;;;;;16.93;11.87;;;1.40;99.90;;;2.09;91.60;-19798.13;5091422;28;20276;-57
2022/03/10 01:17:47;;;;;;;15.37;11.63;;;1.40;99.90;;;2.10;91.40;-19798.47;5091545;28;20230;-59
2022/03/10 01:20:17;;;;;;;15.63;11.40;;;1.40;99.90;;;2.11;91.31;-19798.81;5091514;28;20726;-57
2022/03/10 01:22:46;;;;;;;16.10;11.37;;;1.40;99.90;;;2.23;91.37;-19802.72;5090907;28;20740;-59
2022/03/10 01:25:19;;;;;;;12.30;10.07;;;1.50;99.90;;;2.29;91.72;-19804.97;5091108;28;20235;-58
2022/03/10 01:27:48;;;;;;;16.03;11.93;;;1.50;99.90;;;2.50;90.79;-19812.13;5091033;28;20307;-57
2022/03/10 01:30:17;;;;;;;13.10;10.50;;;1.60;99.90;;;2.44;90.75;-19810.09;5090933;28;20244;-59
2022/03/10 01:32:46;;;;;;;15.07;10.13;;;1.70;99.90;;;2.28;91.54;-19804.59;5090903;28;20306;-59
2022/03/10 01:35:16;;;;;;;15.77;11.37;;;1.60;99.90;;;2.32;91.80;-19805.97;5091474;28;20538;-56
2022/03/10 01:37:45;;;;;;;15.10;11.43;;;1.60;99.90;;;2.32;92.41;-19805.81;5091360;28;20685;-55
2022/03/10 01:40:18;;;;;;;13.53;10.40;;;1.60;99.90;;;2.21;92.50;-19802.06;5090998;28;20314;-56
2022/03/10 01:42:47;;;;;;;14.83;11.97;;;1.60;99.90;;;2.07;93.46;-19797.25;5090694;28;20600;-59
2022/03/10 01:45:16;;;;;;;15.77;11.40;;;1.50;99.90;;;2.02;94.09;-19795.72;5090849;28;20269;-59
2022/03/10 01:47:44;;;;;;;16.63;11.80;;;1.50;99.90;;;1.98;94.62;-19794.19;5090766;28;20313;-56
2022/03/10 01:50:15;;;;;;;17.00;11.87;;;1.40;99.90;;;1.97;94.84;-19793.84;5091564;28;20204;-59
2022/03/10 01:52:45;;;;;;;16.87;11.20;;;1.40;99.90;;;2.09;94.79;-19798.13;5090962;28;20219;-57
2022/03/10 01:55:13;;;;;;;13.20;11.10;;;1.40;99.90;;;2.03;94.81;-19796.06;5094389;28;20250;-56
2022/03/10 01:57:44;;;;;;;15.37;11.07;;;1.40;99.90;;;2.04;95.08;-19796.25;5094610;28;20316;-55
2022/03/10 02:00:15;;;;;;;13.70;10.63;;;1.40;99.90;;;1.99;95.57;-19794.53;5094642;28;20308;-57
2022/03/10 02:02:43;;;;;;;13.87;11.10;;;1.40;99.90;;;1.96;95.63;-19793.66;5094991;28;20311;-57
2022/03/10 02:05:12;;;;;;;12.80;10.60;;;1.40;99.90;;;1.94;95.84;-19793.00;5095788;28;20231;-58
2022/03/10 02:10:29;;;;;;;12.87;10.43;;;1.30;99.90;;;2.04;96.70;-19796.41;5094607;28;20291;-56
2022/03/10 02:12:58;;;;;;;13.83;10.90;;;1.30;99.90;;;2.10;95.76;-19798.47;5094288;28;20238;-57
2022/03/10 02:18:16;;;;;;;13.63;10.10;;;1.40;99.90;;;2.16;95.13;-19800.50;5094422;28;20312;-59
2022/03/10 02:20:44;;;;;;;14.73;10.67;;;1.40;99.90;;;2.29;94.30;-19804.97;5094817;28;20303;-59
2022/03/10 02:23:17;;;;;;;12.90;10.67;;;1.50;99.90;;;2.33;93.76;-19806.31;5095139;28;20193;-56
2022/03/10 02:25:47;;;;;;;15.07;11.20;;;1.50;99.90;;;2.26;94.09;-19803.94;5094911;28;20310;-59
2022/03/10 02:28:17;;;;;;;13.13;10.70;;;1.60;99.90;;;2.22;94.09;-19802.38;5094316;28;20227;-56
2022/03/10 02:30:45;;;;;;;14.07;10.53;;;1.50;99.90;;;2.16;94.75;-19800.50;5094701;28;20228;-56
2022/03/10 02:33:13;;;;;;;13.47;10.73;;;1.50;99.90;;;2.29;94.35;-19804.97;5094162;28;20231;-57
2022/03/10 02:35:41;;;;;;;14.67;11.00;;;1.50;99.90;;;2.24;94.29;-19803.06;5094421;28;20230;-56
2022/03/10 02:38:09;;;;;;;14.33;11.20;;;1.50;99.90;;;2.21;94.22;-19802.06;5094909;28;20288;-59
2022/03/10 02:40:39;;;;;;;15.50;11.37;;;1.50;99.90;;;2.19;94.70;-19801.53;5093855;28;20695;-56
2022/03/10 02:43:07;;;;;;;13.67;11.27;;;1.50;99.90;;;2.11;94.91;-19798.81;5093791;28;20230;-57
2022/03/10 02:45:35;;;;;;;14.57;11.10;;;1.50;99.90;;;2.05;95.06;-19796.75;5094061;28;20227;-56
2022/03/10 02:48:03;;;;;;;16.37;12.03;;;1.40;99.90;;;2.13;94.71;-19799.47;5094050;28;20250;-59
2022/03/10 02:50:31;;;;;;;14.37;11.53;;;1.40;99.90;;;2.01;95.12;-19795.38;5093822;28;20288;-56
2022/03/10 02:52:59;;;;;;;13.70;10.63;;;1.40;99.90;;;1.90;95.85;-19791.63;5094319;28;20352;-57
2022/03/10 02:55:27;;;;;;;15.50;11.47;;;1.30;99.90;;;1.85;96.36;-19789.91;5093677;28;20231;-58
2022/03/10 02:57:56;;;;;;;15.77;11.13;;;1.30;99.90;;;1.84;96.70;-19789.56;5093720;28;20302;-58
2022/03/10 03:00:26;;;;;;;15.97;11.60;;;1.20;99.90;;;1.84;97.06;-19789.41;5093592;28;20216;-56
2022/03/10 03:02:54;;;;;;;12.50;10.23;;;1.20;99.90;;;1.87;96.59;-19790.44;5094078;28;20307;-57
2022/03/10 03:05:22;;;;;;;15.03;10.77;;;1.20;99.90;;;1.97;96.77;-19793.84;5093963;28;20709;-58
2022/03/10 03:07:51;;;;;;;13.90;10.73;;;1.20;99.90;;;1.96;96.60;-19793.50;5095293;28;20232;-57
2022/03/10 03:10:19;;;;;;;13.50;10.93;;;1.20;99.90;;;1.93;96.42;-19792.47;5094167;28;20582;-55
2022/03/10 03:12:50;;;;;;;12.63;10.13;;;1.20;99.90;;;1.92;96.44;-19792.13;5094006;28;20715;-59
2022/03/10 03:15:20;;;;;;;14.57;11.33;;;1.30;99.90;;;2.03;96.13;-19795.91;5094264;28;20224;-57
2022/03/10 03:17:48;;;;;;;15.10;10.47;;;1.30;99.90;;;2.07;95.98;-19797.25;5094199;28;20254;-60
2022/03/10 03:20:17;;;;;;;14.27;11.33;;;1.30;99.90;;;1.99;96.48;-19794.53;5094440;28;20299;-57
2022/03/10 03:22:48;;;;;;;14.63;11.10;;;1.30;99.90;;;1.92;97.20;-19792.31;5094478;28;20215;-59
2022/03/10 03:25:17;;;;;;;13.93;10.00;;;1.20;99.90;;;1.89;97.49;-19791.28;5093586;28;20292;-57
2022/03/10 03:27:46;;;;;;;13.67;10.80;;;1.20;99.90;;;2.04;96.58;-19796.41;5094012;28;20231;-57
2022/03/10 03:30:16;;;;;;;14.47;10.87;;;1.30;99.90;;;2.08;96.14;-19797.78;5093572;28;20224;-58
2022/03/10 03:32:46;;;;;;;12.27;10.27;;;1.30;99.90;;;2.20;95.45;-19801.88;5093958;28;20225;-56
2022/03/10 03:35:15;;;;;;;14.63;10.27;;;1.30;99.90;;;2.19;95.24;-19801.53;5094361;28;20750;-59
2022/03/10 03:37:43;;;;;;;15.93;10.80;;;1.40;99.90;;;2.22;95.12;-19802.56;5094299;28;20340;-59
2022/03/10 03:40:13;;;;;;;15.47;10.80;;;1.40;99.90;;;2.08;95.87;-19797.59;5093882;28;20230;-58
2022/03/10 03:42:41;;;;;;;16.17;11.43;;;1.40;99.90;;;2.15;95.32;-19800.00;5093497;28;20245;-55
2022/03/10 03:45:10;;;;;;;15.57;10.77;;;1.40;99.90;;;2.01;95.59;-19795.38;5093197;28;20583;-59
2022/03/10 03:47:39;;;;;;;15.07;11.17;;;1.40;99.90;;;1.99;95.77;-19794.53;5093896;28;20306;-58
2022/03/10 03:50:10;;;;;;;14.80;10.63;;;1.40;99.90;;;2.12;95.43;-19798.97;5093591;28;20724;-56
2022/03/10 03:52:38;;;;;;;14.40;10.83;;;1.40;99.90;;;2.09;95.21;-19797.94;5093118;28;20263;-58
2022/03/10 03:55:09;;;;;;;14.00;10.83;;;1.30;99.90;;;2.08;95.24;-19797.59;5092926;28;20553;-58
2022/03/10 03:57:37;;;;;;;14.63;10.67;;;1.40;99.90;;;2.05;95.17;-19796.75;5092898;28;20736;-57
2022/03/10 04:00:09;;;;;;;14.07;10.87;;;1.30;99.90;;;2.18;95.06;-19801.19;5092846;28;20257;-57
2022/03/10 04:02:38;;;;;;;14.00;10.40;;;1.30;99.90;;;2.10;94.76;-19798.47;5092919;28;20227;-57
2022/03/10 04:05:09;;;;;;;16.33;10.83;;;1.30;99.90;;;2.04;94.83;-19796.25;5093676;28;20228;-60
2022/03/10 04:07:37;;;;;;;13.20;10.57;;;1.30;99.90;;;1.96;95.39;-19793.66;5093008;28;20694;-57
2022/03/10 04:10:08;;;;;;;14.87;11.03;;;1.30;99.90;;;1.98;95.20;-19794.19;5092672;28;20464;-57
2022/03/10 04:12:37;;;;;;;22.00;11.90;;;1.30;99.90;;;1.85;95.76;-19789.75;5092551;28;20227;-61
2022/03/10 04:15:07;;;;;;;14.77;11.07;;;1.20;99.90;;;1.97;95.86;-19793.84;5092438;28;20226;-57
2022/03/10 04:17:35;;;;;;;15.70;11.17;;;1.20;99.90;;;1.85;95.74;-19789.91;5092077;28;20287;-59
2022/03/10 04:20:07;;;;;;;13.30;10.97;;;1.20;99.90;;;1.83;96.03;-19789.22;5092638;28;20203;-59
2022/03/10 04:22:36;;;;;;;16.33;11.17;;;1.10;99.90;;;1.79;96.44;-19787.88;5092382;28;20273;-58
2022/03/10 04:25:06;;;;;;;14.47;11.03;;;1.10;99.90;;;1.79;95.99;-19787.88;5092033;28;20255;-59
2022/03/10 04:27:34;;;;;;;13.80;11.00;;;1.10;99.90;;;1.81;96.42;-19788.53;5092071;28;20661;-58
2022/03/10 04:30:03;;;;;;;12.67;10.13;;;1.10;99.90;;;1.67;97.21;-19783.75;5092125;28;20314;-58
2022/03/10 04:32:40;;;;;;;13.50;10.53;;;1.00;99.90;;;1.71;97.09;-19785.13;5092286;28;20282;-58
2022/03/10 04:35:09;;;;;;;13.30;10.43;;;1.00;99.90;;;1.75;96.79;-19786.31;5092618;28;20184;-60
2022/03/10 04:37:38;;;;;;;13.83;10.80;;;1.00;99.90;;;1.63;97.33;-19782.22;5091987;28;20224;-59
2022/03/10 04:40:10;;;;;;;14.73;11.00;;;0.90;99.90;;;1.61;97.58;-19781.69;5091682;28;20774;-57
2022/03/10 04:42:40;;;;;;;13.40;10.97;;;0.90;99.90;;;1.58;97.79;-19780.69;5091714;28;20306;-56
2022/03/10 04:45:09;;;;;;;15.37;12.07;;;0.90;99.90;;;1.48;98.48;-19777.25;5091472;28;20802;-57
2022/03/10 04:47:39;;;;;;;14.57;10.73;;;0.80;99.90;;;1.59;99.08;-19781.03;5091555;28;20717;-58
2022/03/10 04:50:09;;;;;;;15.13;11.43;;;0.80;99.90;;;1.70;97.80;-19784.59;5092344;28;20207;-58
2022/03/10 04:52:39;;;;;;;14.00;11.17;;;0.80;99.90;;;1.69;98.07;-19784.44;5091666;28;20246;-58
2022/03/10 04:55:10;;;;;;;14.07;10.77;;;0.90;99.90;;;1.57;98.93;-19780.16;5091527;28;20258;-56
2022/03/10 04:57:39;;;;;;;16.40;11.37;;;0.80;99.90;;;1.44;99.72;-19775.88;5091525;28;20226;-61
2022/03/10 05:00:11;;;;;;;13.97;10.83;;;0.80;99.90;;;1.42;99.98;-19775.03;5091235;28;20314;-55
2022/03/10 05:02:41;;;;;;;13.67;11.13;;;0.70;99.90;;;1.31;100.00;-19771.44;5091709;28;20235;-58
2022/03/10 05:05:12;;;;;;;15.27;11.23;;;0.70;99.90;;;1.35;100.00;-19772.66;5092258;28;20202;-57
2022/03/10 05:07:42;;;;;;;15.93;11.33;;;0.60;99.90;;;1.30;100.00;-19770.94;5091581;28;20246;-55
2022/03/10 05:10:12;;;;;;;14.27;10.73;;;0.60;99.90;;;1.16;100.00;-19766.31;5091573;28;20227;-58
2022/03/10 05:12:49;;;;;;;15.13;11.50;;;0.60;99.90;;;1.12;100.00;-19764.94;5091073;28;20231;-58
2022/03/10 05:15:19;;;;;;;16.43;11.87;;;0.50;99.90;;;1.21;100.00;-19768.19;5091458;28;20282;-58
2022/03/10 05:17:48;;;;;;;13.93;10.70;;;0.50;99.90;;;1.25;100.00;-19769.41;5091393;28;20226;-57
2022/03/10 05:20:16;;;;;;;14.17;11.67;;;0.50;99.90;;;1.13;100.00;-19765.47;5091580;28;20270;-57
2022/03/10 05:22:48;;;;;;;14.97;11.23;;;0.50;99.90;;;1.23;100.00;-19768.72;5091474;28;20697;-59
2022/03/10 05:25:18;;;;;;;15.33;11.43;;;0.50;99.90;;;1.24;100.00;-19769.06;5091211;28;20249;-57
2022/03/10 05:27:48;;;;;;;15.30;11.30;;;0.50;99.90;;;1.43;100.00;-19775.38;5090637;28;20228;-57
2022/03/10 05:30:19;;;;;;;13.37;11.20;;;0.60;99.90;;;1.34;100.00;-19772.47;5090870;28;20532;-58
2022/03/10 05:32:47;;;;;;;14.93;11.73;;;0.50;99.90;;;1.42;100.00;-19775.22;5091156;28;20423;-59
2022/03/10 05:35:17;;;;;;;15.17;11.10;;;0.60;99.90;;;1.31;100.00;-19771.44;5091756;28;20249;-59
2022/03/10 05:37:48;;;;;;;16.17;12.73;;;0.60;99.90;;;1.42;100.00;-19775.22;5091358;28;20247;-59
2022/03/10 05:40:19;;;;;;;15.70;12.07;;;0.60;99.90;;;1.47;100.00;-19776.91;5090910;28;20660;-57
2022/03/10 05:42:50;;;;;;;15.70;11.87;;;0.60;99.90;;;1.52;100.00;-19778.47;5090676;28;20245;-59
2022/03/10 05:45:20;;;;;;;17.00;11.40;;;0.70;99.90;;;1.62;100.00;-19782.06;5090833;28;20220;-55
2022/03/10 05:47:50;;;;;;;14.97;12.03;;;0.70;99.90;;;1.46;100.00;-19776.41;5090483;28;20595;-57
2022/03/10 05:50:19;;;;;;;16.23;11.53;;;0.80;99.90;;;1.63;100.00;-19782.38;5091753;28;20197;-59
2022/03/10 05:52:49;;;;;;;15.03;11.93;;;0.70;99.90;;;1.43;100.00;-19775.56;5090783;28;20253;-58
2022/03/10 05:55:18;;;;;;;16.03;11.73;;;0.70;99.90;;;1.36;100.00;-19773.16;5090490;28;20222;-56
2022/03/10 05:57:47;;;;;;;18.27;11.80;;;0.70;99.90;;;1.34;100.00;-19772.47;5090761;28;20306;-57
2022/03/10 06:00:17;;;;;;;15.33;11.53;;;0.70;99.90;;;1.47;100.00;-19776.75;5090500;28;20624;-57
2022/03/10 06:02:48;;;;;;;18.33;11.73;;;0.70;99.90;;;1.47;100.00;-19776.91;5090786;28;20222;-58
2022/03/10 06:05:17;;;;;;;15.13;11.50;;;0.70;99.90;;;1.54;100.00;-19779.16;5091462;28;20203;-58
2022/03/10 06:07:45;;;;;;;14.63;11.13;;;0.80;99.90;;;1.42;100.00;-19775.03;5091149;28;20219;-59
2022/03/10 06:10:14;;;;;;;14.70;11.80;;;0.70;99.90;;;1.42;100.00;-19775.22;5090442;28;20323;-60
2022/03/10 06:12:44;;;;;;;14.50;11.70;;;0.70;99.90;;;1.56;100.00;-19779.81;5090485;28;20246;-59
2022/03/10 06:15:12;;;;;;;18.73;12.03;;;0.80;99.90;;;1.60;100.00;-19781.38;5090586;28;20730;-58
2022/03/10 06:17:40;;;;;;;15.03;11.23;;;0.80;99.90;;;1.43;100.00;-19775.38;5090704;28;20223;-59
2022/03/10 06:20:10;;;;;;;16.70;12.10;;;0.80;99.90;;;1.42;100.00;-19775.22;5091115;28;20226;-58
2022/03/10 06:22:38;;;;;;;16.80;12.03;;;0.80;99.90;;;1.58;100.00;-19780.50;5089971;28;20235;-57
2022/03/10 06:25:10;;;;;;;17.60;12.27;;;0.90;99.90;;;1.82;100.00;-19788.72;5090418;28;20597;-57
2022/03/10 06:27:39;;;;;;;18.73;13.10;;;1.00;99.90;;;1.86;100.00;-19790.09;5090236;28;20231;-57
2022/03/10 06:30:12;;;;;;;16.37;12.03;;;1.00;99.90;;;1.88;100.00;-19790.75;5090335;28;20219;-58
2022/03/10 06:32:40;;;;;;;15.50;11.53;;;1.10;99.90;;;1.88;100.00;-19790.75;5090285;28;20309;-59
2022/03/10 06:35:09;;;;;;;16.00;12.37;;;1.20;99.90;;;1.88;100.00;-19790.94;5090918;28;20210;-58
2022/03/10 06:37:43;;;;;;;14.63;12.03;;;1.30;99.90;;;1.97;100.00;-19794.00;5090179;28;20219;-57
2022/03/10 06:40:13;;;;;;;16.97;12.23;;;1.30;99.90;;;2.03;100.00;-19796.06;5091654;28;20717;-57
2022/03/10 06:42:42;;;;;;;15.90;12.70;;;1.40;99.90;;;2.13;99.99;-19799.47;5093798;28;20226;-57
2022/03/10 06:45:11;;;;;;;17.73;12.27;;;1.40;99.90;;;2.21;99.42;-19802.22;5093856;28;20216;-59
2022/03/10 06:47:40;;;;;;;16.10;12.10;;;1.50;99.90;;;2.44;98.48;-19809.91;5093855;28;20251;-58
2022/03/10 06:50:09;;;;;;;18.37;13.33;;;1.60;99.90;;;2.73;95.97;-19819.66;5094484;28;20282;-56
2022/03/10 06:52:37;;;;;;;15.73;11.53;;;1.80;99.90;;;2.79;95.18;-19821.72;5093337;28;20329;-56
2022/03/10 06:55:06;;;;;;;15.60;12.30;;;1.90;99.90;;;2.85;94.65;-19823.75;5093796;28;20670;-59
2022/03/10 06:57:34;;;;;;;19.37;12.50;;;2.00;99.90;;;2.85;94.48;-19823.94;5093516;28;20238;-57
2022/03/10 07:00:07;;;;;;;16.90;12.40;;;2.10;99.90;;;3.16;91.91;-19834.34;5093511;28;20227;-55
2022/03/10 07:02:35;;;;;;;17.57;11.70;;;2.20;99.90;;;3.13;91.97;-19833.50;5093673;28;20560;-56
2022/03/10 07:05:03;;;;;;;14.83;11.90;;;2.30;99.90;;;3.19;91.99;-19835.38;5094202;28;20212;-57
2022/03/10 07:07:31;;;;;;;14.63;11.43;;;2.40;99.90;;;3.30;91.33;-19839.16;5093280;28;20304;-58
2022/03/10 07:09:59;;;;;;;13.73;11.27;;;2.50;99.90;;;3.28;91.64;-19838.47;5093529;28;20220;-58
2022/03/10 07:12:28;;;;;;;15.20;11.43;;;2.60;99.90;;;3.45;90.87;-19844.28;5093221;28;20304;-55
2022/03/10 07:14:56;;;;;;;15.40;11.80;;;2.70;99.90;;;3.71;88.07;-19853.34;5092256;28;20303;-53
2022/03/10 07:17:26;;;;;;;16.10;11.53;;;2.80;99.90;;;3.76;87.44;-19854.88;5093386;28;20206;-56
2022/03/10 07:19:54;;;;;;;17.17;11.43;;;2.90;99.90;;;3.76;87.58;-19854.88;5093929;28;20219;-59
2022/03/10 07:22:27;;;;;;;12.80;10.50;;;3.00;99.90;;;3.80;87.37;-19856.06;5073061;28;20234;-58
2022/03/10 07:24:55;;;;;;;14.00;10.27;;;3.00;99.90;;;3.97;86.01;-19861.88;5091260;28;20286;-60
2022/03/10 07:27:23;;;;;;;12.90;11.17;;;3.10;99.90;;;4.00;86.06;-19862.91;5080500;28;20222;-60
2022/03/10 07:29:51;;;;;;;13.67;10.30;;;3.20;99.90;;;4.12;85.22;-19867.00;5086895;28;20228;-60
2022/03/10 07:32:20;;;;;;;13.40;10.60;;;3.30;99.90;;;4.25;84.57;-19871.44;5084798;28;20306;-59
2022/03/10 07:34:49;;;;;;;15.00;11.53;;;3.40;99.90;;;4.49;82.36;-19879.81;5093473;28;20227;-59
2022/03/10 07:37:17;;;;;;;14.07;11.07;;;3.60;99.90;;;4.56;82.50;-19882.06;5086060;28;20833;-60
2022/03/10 07:39:45;;;;;;;12.97;10.17;;;3.70;99.90;;;4.75;80.83;-19888.53;5088584;28;20255;-59
2022/03/10 07:42:13;;;;;;;13.17;10.07;;;3.80;99.90;;;4.80;80.43;-19890.41;5092475;28;20318;-59
2022/03/10 07:44:42;;;;;;;13.53;10.50;;;3.90;99.90;;;4.99;79.66;-19896.75;5092608;28;20652;-59
2022/03/10 07:47:10;;;;;;;15.00;9.80;;;4.10;99.90;;;5.03;79.11;-19898.13;5092666;28;20231;-59
2022/03/10 07:49:39;;;;;;;12.97;10.00;;;4.20;99.90;;;5.19;77.53;-19903.59;5092402;28;20570;-58
2022/03/10 07:52:08;;;;;;;12.33;9.60;;;4.30;99.90;;;5.32;76.22;-19907.84;5092221;28;20266;-59
2022/03/10 07:54:36;;;;;;;12.37;9.73;;;4.40;99.90;;;5.36;75.52;-19909.22;5092084;28;20225;-59
2022/03/10 07:57:05;;;;;;;12.40;9.77;;;4.40;99.90;;;5.40;75.61;-19910.59;5092091;28;20219;-62
2022/03/10 07:59:33;;;;;;;10.20;9.10;;;4.50;99.90;;;5.60;74.33;-19917.59;5092056;28;20259;-60
2022/03/10 08:02:01;;;;;;;12.77;9.90;;;4.70;99.90;;;5.71;73.56;-19921.19;5092385;28;20735;-60
2022/03/10 08:04:29;;;;;;;13.50;9.87;;;4.70;99.90;;;5.82;72.46;-19925.13;5092284;28;20623;-61
2022/03/10 08:06:59;;;;;;;15.00;9.93;;;4.90;99.90;;;5.92;71.52;-19928.38;5092662;28;20627;-60
2022/03/10 08:09:28;;;;;;;13.33;9.20;;;4.90;99.90;;;6.01;70.48;-19931.44;5092067;28;20734;-61
2022/03/10 08:11:56;;;;;;;11.63;8.73;;;5.10;99.90;;;6.13;69.53;-19935.56;5091843;28;20245;-60
2022/03/10 08:14:24;;;;;;;12.07;8.80;;;5.10;99.90;;;6.19;68.89;-19937.59;5091456;28;20222;-60
2022/03/10 08:16:52;;;;;;;11.67;9.03;;;5.20;99.90;;;6.34;67.56;-19942.72;5092245;28;20747;-57
2022/03/10 08:19:21;;;;;;;10.90;8.53;;;5.30;99.90;;;6.36;68.16;-19943.41;5092076;28;20542;-59
2022/03/10 08:21:51;;;;;;;10.57;8.97;;;5.40;99.90;;;6.44;67.98;-19946.16;5092405;28;20857;-59
2022/03/10 08:24:19;;;;;;;13.10;10.63;;;5.50;99.90;;;6.50;67.70;-19948.19;5091381;28;20233;-60
2022/03/10 08:26:48;;;;;;;13.63;9.70;;;5.50;99.90;;;6.67;67.04;-19954.00;5092007;28;20225;-59
2022/03/10 08:29:16;;;;;;;11.37;9.53;;;5.60;99.90;;;6.76;66.93;-19956.91;5091365;28;20225;-57
2022/03/10 08:31:44;;;;;;;13.27;9.60;;;5.70;99.90;;;6.97;66.50;-19964.09;5091607;28;20221;-60
2022/03/10 08:34:16;;;;;;;13.40;10.53;;;5.80;99.90;;;7.00;65.93;-19965.28;5092183;28;20184;-60
2022/03/10 08:36:44;;;;;;;14.47;10.10;;;6.00;99.90;;;7.06;66.44;-19967.34;5092481;28;20680;-60
2022/03/10 08:39:13;;;;;;;14.30;10.30;;;6.10;99.90;;;7.30;64.60;-19975.53;5091471;28;20253;-59
2022/03/10 08:41:40;;;;;;;12.17;9.63;;;6.20;99.90;;;7.37;63.66;-19977.94;5091539;28;20242;-58
2022/03/10 08:44:10;;;;;;;13.43;9.57;;;6.30;99.90;;;7.44;63.77;-19980.16;5091282;28;20232;-59
2022/03/10 08:46:38;;;;;;;11.57;9.77;;;6.40;99.90;;;7.62;63.42;-19986.13;5091325;28;20338;-58
2022/03/10 08:49:06;;;;;;;15.73;10.53;;;6.50;99.90;;;7.77;62.50;-19991.25;5091759;28;20203;-61
2022/03/10 08:51:34;;;;;;;14.27;10.10;;;6.60;99.90;;;7.93;62.00;-19996.91;5091149;28;20238;-59
2022/03/10 08:54:03;;;;;;;13.63;9.73;;;6.80;99.90;;;8.04;60.93;-20000.47;5091711;28;20314;-59
2022/03/10 08:56:30;;;;;;;12.00;9.57;;;6.90;99.90;;;8.05;61.28;-20001.00;5090843;28;20231;-57
2022/03/10 08:58:58;;;;;;;12.67;10.17;;;7.00;99.90;;;8.15;61.09;-20004.41;5090917;28;20306;-60
2022/03/10 09:01:27;;;;;;;15.00;10.70;;;7.00;99.90;;;8.18;61.04;-20005.44;5091295;28;20245;-60
2022/03/10 09:03:56;;;;;;;14.90;10.83;;;7.00;99.90;;;8.29;60.83;-20009.22;5091295;28;20742;-59
2022/03/10 09:06:25;;;;;;;13.83;9.87;;;7.10;99.90;;;8.47;59.95;-20015.34;5090926;28;20246;-61
2022/03/10 09:08:53;;;;;;;12.00;9.50;;;7.30;99.90;;;8.47;60.32;-20015.34;5090889;28;20469;-56
2022/03/10 09:11:21;;;;;;;12.50;10.07;;;7.30;99.90;;;8.56;60.65;-20018.44;5090988;28;20245;-55
2022/03/10 09:13:49;;;;;;;12.33;9.63;;;7.40;99.90;;;8.78;59.59;-20025.63;5090603;28;20227;-59
2022/03/10 09:16:19;;;;;;;13.10;10.10;;;7.60;99.90;;;8.73;59.97;-20023.91;5091265;28;20746;-59
2022/03/10 09:18:49;;;;;;;13.93;10.10;;;7.60;99.90;;;8.88;59.99;-20029.19;5091593;28;20284;-59
2022/03/10 09:21:17;;;;;;;13.53;9.83;;;7.60;99.90;;;9.01;59.77;-20033.47;5090072;28;20365;-60
2022/03/10 09:23:46;;;;;;;13.07;10.33;;;7.80;99.90;;;9.00;59.76;-20033.28;5090164;28;20741;-59
2022/03/10 09:26:15;;;;;;;10.93;8.77;;;7.80;99.90;;;9.13;59.08;-20037.72;5090486;28;20224;-61
2022/03/10 09:28:43;;;;;;;11.97;9.80;;;7.90;99.90;;;9.28;58.21;-20042.88;5073735;28;20655;-62
2022/03/10 09:31:16;;;;;;;12.80;9.47;;;8.00;99.90;;;9.33;57.60;-20044.56;5076476;28;20212;-60
2022/03/10 09:33:45;;;;;;;12.67;9.60;;;8.10;99.90;;;9.41;57.60;-20047.13;5090677;28;20227;-61
2022/03/10 09:36:15;;;;;;;15.23;10.13;;;8.20;99.90;;;9.58;56.54;-20052.94;5090578;28;20231;-59
2022/03/10 09:38:44;;;;;;;11.97;9.63;;;8.40;99.90;;;9.71;55.88;-20057.56;5090320;28;20224;-60
2022/03/10 09:41:12;;;;;;;12.53;8.50;;;8.50;99.90;;;9.89;54.73;-20063.53;5090559;28;20232;-58
2022/03/10 09:43:40;;;;;;;11.87;9.40;;;8.60;99.90;;;9.97;54.51;-20066.09;5090263;28;20224;-61
2022/03/10 09:46:09;;;;;;;11.73;9.37;;;8.70;99.90;;;10.07;53.45;-20069.50;5091020;28;20226;-59
2022/03/10 09:48:39;;;;;;;11.47;8.87;;;8.80;99.90;;;10.06;52.40;-20069.34;5090102;28;20281;-59
2022/03/10 09:51:08;;;;;;;13.37;8.93;;;8.90;99.90;;;10.08;52.46;-20070.03;5089787;28;20223;-59
2022/03/10 09:53:40;;;;;;;10.33;8.87;;;8.90;99.90;;;10.00;53.43;-20067.13;5089581;28;20255;-59
2022/03/10 09:56:09;;;;;;;12.87;9.03;;;8.90;99.90;;;10.13;52.69;-20071.56;5090103;28;20232;-61
2022/03/10 09:58:39;;;;;;;14.50;9.37;;;8.90;99.90;;;10.10;52.90;-20070.72;5089648;28;20227;-61
2022/03/10 10:01:07;;;;;;;11.97;8.50;;;8.90;99.90;;;10.11;52.92;-20071.06;5090485;28;20212;-61
2022/03/10 10:03:36;;;;;;;13.67;9.47;;;9.00;99.90;;;10.21;53.22;-20074.47;5089742;28;20236;-59
2022/03/10 10:06:09;;;;;;;12.83;9.27;;;9.10;99.90;;;10.43;52.96;-20082.00;5089920;28;20345;-58
2022/03/10 10:08:41;;;;;;;11.23;9.07;;;9.10;99.90;;;10.63;52.28;-20088.66;5089631;28;20314;-59
2022/03/10 10:11:15;;;;;;;12.83;9.53;;;9.20;99.90;;;10.56;52.20;-20086.44;5089832;28;20215;-61
2022/03/10 10:13:47;;;;;;;12.53;8.80;;;9.30;99.90;;;10.65;52.13;-20089.50;5089412;28;20219;-60
2022/03/10 10:16:17;;;;;;;12.13;9.53;;;9.40;99.90;;;10.69;52.27;-20090.69;5093944;28;20212;-59
2022/03/10 10:18:46;;;;;;;11.70;8.67;;;9.40;99.90;;;10.80;52.04;-20094.44;5093888;28;20624;-58
2022/03/10 10:21:22;;;;;;;10.60;8.73;;;9.50;99.90;;;10.93;51.44;-20098.88;5093484;28;20220;-60
2022/03/10 10:23:53;;;;;;;11.27;7.40;;;9.70;99.90;;;11.05;50.55;-20103.00;5086824;28;20232;-58
2022/03/10 10:26:26;;;;;;;11.93;7.93;;;9.70;99.90;;;11.14;49.77;-20105.91;5073211;28;20235;-62